createdAt,value
2017-07-10T00:00:48.731Z,0.00
2017-07-10T00:01:48.729Z,0.00
2017-07-10T00:02:48.736Z,0.00
2017-07-10T00:03:48.731Z,0.00
2017-07-10T00:05:48.734Z,0.00
2017-07-10T00:06:48.756Z,0.00
2017-07-10T00:07:48.677Z,0.00
2017-07-10T00:08:48.779Z,0.00
2017-07-10T00:09:48.653Z,0.00
2017-07-10T00:10:48.686Z,0.00
2017-07-10T00:11:48.657Z,0.00
2017-07-10T00:12:48.614Z,0.00
2017-07-10T00:13:48.620Z,0.00
2017-07-10T00:14:48.645Z,0.00
2017-07-10T00:15:48.656Z,0.00
2017-07-10T00:16:48.666Z,0.00
2017-07-10T00:17:48.741Z,0.00
2017-07-10T00:18:48.689Z,0.00
2017-07-10T00:19:48.778Z,0.00
2017-07-10T00:20:48.770Z,0.00
2017-07-10T00:21:48.742Z,0.00
2017-07-10T00:22:48.773Z,0.00
2017-07-10T00:23:48.767Z,0.00
2017-07-10T00:24:48.771Z,0.00
2017-07-10T00:25:48.773Z,0.00
2017-07-10T00:26:48.697Z,0.00
2017-07-10T00:27:48.766Z,0.00
2017-07-10T00:28:48.772Z,0.00
2017-07-10T00:29:48.690Z,0.00
2017-07-10T00:30:48.714Z,0.00
2017-07-10T00:31:48.785Z,0.00
2017-07-10T00:32:48.789Z,0.00
2017-07-10T00:33:48.792Z,0.00
2017-07-10T00:34:48.781Z,0.00
2017-07-10T00:35:48.697Z,0.00
2017-07-10T00:36:48.697Z,0.00
2017-07-10T00:37:48.685Z,0.00
2017-07-10T00:38:48.770Z,0.00
2017-07-10T00:39:48.774Z,0.00
2017-07-10T00:40:48.769Z,0.00
2017-07-10T00:41:48.775Z,0.00
2017-07-10T00:42:48.772Z,0.00
2017-07-10T00:43:48.773Z,0.00
2017-07-10T00:44:48.775Z,0.00
2017-07-10T00:45:48.775Z,0.00
2017-07-10T00:46:48.775Z,0.00
2017-07-10T00:47:48.763Z,0.00
2017-07-10T00:48:48.761Z,0.00
2017-07-10T00:49:48.765Z,0.00
2017-07-10T00:50:48.764Z,0.00
2017-07-10T00:51:48.761Z,0.00
2017-07-10T00:52:48.767Z,0.00
2017-07-10T00:53:48.765Z,0.00
2017-07-10T00:54:48.767Z,0.00
2017-07-10T00:55:48.764Z,0.00
2017-07-10T00:56:48.765Z,0.00
2017-07-10T00:57:48.806Z,0.00
2017-07-10T00:58:48.793Z,0.00
2017-07-10T00:59:48.716Z,0.00
2017-07-10T01:00:48.712Z,0.00
2017-07-10T01:01:48.717Z,0.00
2017-07-10T01:02:48.798Z,0.00
2017-07-10T01:03:48.773Z,0.00
2017-07-10T01:04:48.716Z,0.00
2017-07-10T01:05:48.771Z,0.00
2017-07-10T01:06:48.787Z,0.00
2017-07-10T01:07:48.773Z,0.00
2017-07-10T01:08:48.811Z,0.00
2017-07-10T01:09:48.761Z,0.00
2017-07-10T01:10:48.798Z,0.00
2017-07-10T01:11:48.771Z,0.00
2017-07-10T01:12:48.799Z,0.00
2017-07-10T01:13:48.720Z,0.00
2017-07-10T01:14:48.722Z,0.00
2017-07-10T01:15:48.791Z,0.00
2017-07-10T01:16:48.742Z,0.00
2017-07-10T01:17:48.780Z,0.00
2017-07-10T01:18:48.781Z,0.00
2017-07-10T01:19:48.780Z,0.00
2017-07-10T01:20:48.776Z,0.00
2017-07-10T01:21:48.776Z,0.00
2017-07-10T01:22:48.774Z,0.00
2017-07-10T01:23:48.776Z,0.00
2017-07-10T01:24:48.779Z,0.00
2017-07-10T01:25:48.780Z,0.00
2017-07-10T01:26:48.783Z,0.00
2017-07-10T01:27:48.780Z,0.00
2017-07-10T01:28:48.783Z,0.00
2017-07-10T01:29:48.795Z,0.00
2017-07-10T01:30:48.787Z,0.00
2017-07-10T01:31:48.785Z,0.00
2017-07-10T01:32:48.782Z,0.00
2017-07-10T01:33:48.783Z,0.00
2017-07-10T01:34:48.789Z,0.00
2017-07-10T01:35:48.788Z,0.00
2017-07-10T01:36:48.788Z,0.00
2017-07-10T01:37:48.787Z,0.00
2017-07-10T01:38:48.751Z,0.00
2017-07-10T01:39:48.821Z,0.00
2017-07-10T01:40:48.734Z,0.00
2017-07-10T01:41:48.817Z,0.00
2017-07-10T01:42:48.820Z,0.00
2017-07-10T01:43:48.753Z,0.00
2017-07-10T01:44:48.817Z,0.00
2017-07-10T01:45:48.816Z,0.00
2017-07-10T01:46:48.817Z,0.00
2017-07-10T01:47:48.822Z,0.00
2017-07-10T01:48:48.830Z,0.00
2017-07-10T01:49:48.812Z,0.00
2017-07-10T01:50:48.820Z,0.00
2017-07-10T01:51:48.833Z,0.00
2017-07-10T01:52:48.818Z,0.00
2017-07-10T01:53:48.833Z,0.00
2017-07-10T01:54:48.829Z,0.00
2017-07-10T01:55:48.835Z,0.00
2017-07-10T01:56:48.841Z,0.00
2017-07-10T01:57:48.825Z,0.00
2017-07-10T01:58:48.761Z,0.00
2017-07-10T01:59:48.840Z,0.00
2017-07-10T02:00:48.831Z,0.00
2017-07-10T02:01:48.747Z,0.00
2017-07-10T02:02:48.797Z,0.00
2017-07-10T02:03:48.832Z,0.00
2017-07-10T02:04:48.802Z,0.00
2017-07-10T02:05:48.830Z,0.00
2017-07-10T02:06:48.821Z,0.00
2017-07-10T02:07:48.825Z,0.00
2017-07-10T02:08:48.767Z,0.00
2017-07-10T02:09:48.826Z,0.00
2017-07-10T02:10:48.804Z,0.00
2017-07-10T02:11:48.840Z,0.00
2017-07-10T02:12:48.844Z,0.00
2017-07-10T02:13:48.810Z,0.00
2017-07-10T02:14:48.825Z,0.00
2017-07-10T02:15:48.757Z,0.00
2017-07-10T02:16:48.830Z,0.00
2017-07-10T02:17:48.809Z,0.00
2017-07-10T02:18:48.815Z,0.00
2017-07-10T02:19:48.827Z,0.00
2017-07-10T02:20:48.825Z,0.00
2017-07-10T02:21:48.824Z,0.00
2017-07-10T02:22:48.823Z,0.00
2017-07-10T02:23:48.825Z,0.00
2017-07-10T02:24:48.831Z,0.00
2017-07-10T02:25:48.832Z,0.00
2017-07-10T02:26:48.797Z,0.00
2017-07-10T02:27:48.829Z,0.00
2017-07-10T02:28:48.845Z,0.00
2017-07-10T02:29:48.820Z,0.00
2017-07-10T02:30:48.767Z,0.00
2017-07-10T02:31:48.853Z,0.00
2017-07-10T02:32:48.847Z,0.00
2017-07-10T02:33:48.782Z,0.00
2017-07-10T02:34:48.960Z,0.00
2017-07-10T02:35:48.798Z,0.00
2017-07-10T02:36:48.815Z,0.00
2017-07-10T02:37:48.772Z,0.00
2017-07-10T02:38:48.831Z,0.00
2017-07-10T02:39:48.833Z,0.00
2017-07-10T02:40:48.839Z,0.00
2017-07-10T02:41:48.813Z,0.00
2017-07-10T02:42:48.834Z,0.00
2017-07-10T02:43:48.872Z,0.00
2017-07-10T02:44:48.841Z,0.00
2017-07-10T02:45:48.851Z,0.00
2017-07-10T02:46:48.842Z,0.00
2017-07-10T02:47:48.840Z,0.00
2017-07-10T02:48:48.846Z,0.00
2017-07-10T02:49:48.863Z,0.00
2017-07-10T02:50:48.777Z,0.00
2017-07-10T02:51:48.845Z,0.00
2017-07-10T02:52:48.868Z,0.00
2017-07-10T02:53:48.873Z,0.00
2017-07-10T02:54:48.855Z,0.00
2017-07-10T02:55:48.766Z,0.00
2017-07-10T02:56:48.860Z,0.00
2017-07-10T02:57:48.793Z,0.00
2017-07-10T02:58:48.862Z,0.00
2017-07-10T02:59:48.871Z,0.00
2017-07-10T03:00:48.797Z,0.00
2017-07-10T03:01:48.847Z,0.00
2017-07-10T03:02:48.823Z,0.00
2017-07-10T03:03:48.863Z,0.00
2017-07-10T03:04:48.783Z,0.00
2017-07-10T03:05:48.865Z,0.00
2017-07-10T03:06:48.788Z,0.00
2017-07-10T03:07:48.790Z,0.00
2017-07-10T03:08:48.756Z,0.00
2017-07-10T03:09:48.772Z,0.00
2017-07-10T03:10:48.818Z,0.00
2017-07-10T03:11:48.846Z,0.00
2017-07-10T03:12:48.763Z,0.00
2017-07-10T03:13:48.759Z,0.00
2017-07-10T03:14:48.814Z,0.00
2017-07-10T03:15:48.851Z,0.00
2017-07-10T03:16:48.752Z,0.00
2017-07-10T03:17:48.755Z,0.00
2017-07-10T03:18:48.768Z,0.00
2017-07-10T03:19:48.817Z,0.00
2017-07-10T03:20:48.844Z,0.00
2017-07-10T03:21:48.747Z,0.00
2017-07-10T03:22:48.750Z,0.00
2017-07-10T03:23:48.719Z,0.00
2017-07-10T03:24:48.751Z,0.00
2017-07-10T03:25:48.863Z,0.00
2017-07-10T03:26:48.726Z,0.00
2017-07-10T03:27:48.871Z,0.00
2017-07-10T03:28:48.800Z,0.00
2017-07-10T03:29:48.843Z,0.00
2017-07-10T03:30:48.843Z,0.00
2017-07-10T03:31:48.891Z,0.00
2017-07-10T03:32:48.880Z,0.00
2017-07-10T03:33:48.886Z,0.00
2017-07-10T03:34:48.883Z,0.00
2017-07-10T03:35:48.804Z,0.00
2017-07-10T03:36:48.880Z,0.00
2017-07-10T03:37:48.890Z,0.00
2017-07-10T03:38:48.892Z,0.00
2017-07-10T03:39:48.881Z,0.00
2017-07-10T03:40:48.887Z,0.00
2017-07-10T03:41:48.888Z,0.00
2017-07-10T03:42:48.891Z,0.00
2017-07-10T03:43:48.892Z,0.00
2017-07-10T03:44:48.893Z,0.00
2017-07-10T03:45:48.890Z,0.00
2017-07-10T03:46:48.879Z,0.00
2017-07-10T03:47:48.859Z,0.00
2017-07-10T03:48:48.892Z,0.00
2017-07-10T03:49:48.988Z,0.00
2017-07-10T03:50:48.981Z,0.00
2017-07-10T03:51:48.888Z,0.00
2017-07-10T03:52:48.862Z,0.00
2017-07-10T03:53:48.877Z,0.00
2017-07-10T03:54:48.893Z,0.00
2017-07-10T03:55:48.902Z,0.00
2017-07-10T03:56:48.896Z,0.00
2017-07-10T03:57:48.816Z,0.00
2017-07-10T03:58:48.890Z,0.00
2017-07-10T03:59:48.861Z,0.00
2017-07-10T04:00:48.900Z,0.00
2017-07-10T04:01:48.869Z,0.00
2017-07-10T04:02:48.883Z,0.00
2017-07-10T04:03:48.902Z,0.00
2017-07-10T04:04:48.814Z,0.00
2017-07-10T04:05:48.888Z,0.00
2017-07-10T04:06:48.903Z,0.00
2017-07-10T04:07:48.898Z,0.00
2017-07-10T04:08:48.884Z,0.00
2017-07-10T04:09:48.888Z,0.00
2017-07-10T04:10:48.883Z,0.00
2017-07-10T04:11:48.886Z,0.00
2017-07-10T04:12:48.887Z,1.00
2017-07-10T04:13:48.894Z,0.00
2017-07-10T04:14:48.887Z,0.00
2017-07-10T04:15:48.889Z,0.00
2017-07-10T04:16:48.888Z,0.00
2017-07-10T04:17:48.891Z,0.00
2017-07-10T04:18:48.894Z,0.00
2017-07-10T04:19:48.910Z,0.00
2017-07-10T04:20:48.831Z,0.00
2017-07-10T04:21:48.836Z,0.00
2017-07-10T04:22:48.895Z,0.00
2017-07-10T04:23:48.898Z,0.00
2017-07-10T04:24:48.910Z,0.00
2017-07-10T04:25:48.912Z,0.00
2017-07-10T04:26:48.899Z,0.00
2017-07-10T04:27:48.826Z,0.00
2017-07-10T04:28:48.900Z,0.00
2017-07-10T04:29:48.895Z,0.00
2017-07-10T04:30:48.901Z,0.00
2017-07-10T04:31:48.913Z,0.00
2017-07-10T04:32:48.905Z,0.00
2017-07-10T04:33:48.905Z,0.00
2017-07-10T04:34:48.904Z,0.00
2017-07-10T04:35:48.903Z,0.00
2017-07-10T04:36:48.903Z,0.00
2017-07-10T04:37:48.904Z,0.00
2017-07-10T04:38:48.870Z,0.00
2017-07-10T04:39:48.859Z,0.00
2017-07-10T04:40:48.859Z,0.00
2017-07-10T04:41:48.856Z,0.00
2017-07-10T04:42:48.863Z,0.00
2017-07-10T04:43:48.822Z,0.00
2017-07-10T04:44:48.859Z,1.00
2017-07-10T04:45:48.833Z,1.00
2017-07-10T04:46:48.834Z,1.00
2017-07-10T04:47:48.910Z,1.00
2017-07-10T04:48:48.904Z,1.00
2017-07-10T04:49:48.910Z,1.00
2017-07-10T04:50:48.905Z,1.00
2017-07-10T04:51:48.908Z,1.00
2017-07-10T04:52:48.906Z,2.00
2017-07-10T04:53:48.904Z,2.00
2017-07-10T04:54:48.910Z,2.00
2017-07-10T04:55:49.014Z,2.00
2017-07-10T04:56:48.911Z,2.00
2017-07-10T04:57:48.915Z,2.00
2017-07-10T04:58:48.994Z,2.00
2017-07-10T04:59:48.915Z,2.00
2017-07-10T05:00:48.921Z,2.00
2017-07-10T05:01:48.913Z,2.00
2017-07-10T05:02:48.912Z,2.00
2017-07-10T05:03:48.914Z,2.00
2017-07-10T05:04:48.916Z,2.00
2017-07-10T05:05:48.913Z,3.00
2017-07-10T05:06:48.916Z,3.00
2017-07-10T05:07:48.905Z,3.00
2017-07-10T05:08:48.936Z,4.00
2017-07-10T05:09:48.893Z,4.00
2017-07-10T05:10:48.924Z,4.00
2017-07-10T05:11:48.876Z,5.00
2017-07-10T05:12:48.947Z,6.00
2017-07-10T05:13:48.860Z,6.00
2017-07-10T05:14:48.930Z,6.00
2017-07-10T05:15:48.850Z,6.00
2017-07-10T05:16:48.930Z,6.00
2017-07-10T05:17:48.942Z,6.00
2017-07-10T05:18:48.940Z,7.00
2017-07-10T05:19:48.925Z,7.00
2017-07-10T05:20:48.933Z,7.00
2017-07-10T05:21:48.940Z,7.00
2017-07-10T05:22:48.923Z,8.00
2017-07-10T05:23:48.861Z,8.00
2017-07-10T05:24:48.954Z,9.00
2017-07-10T05:25:48.930Z,10.00
2017-07-10T05:26:48.858Z,11.00
2017-07-10T05:27:48.857Z,11.00
2017-07-10T05:28:48.862Z,11.00
2017-07-10T05:29:48.906Z,11.00
2017-07-10T05:30:48.949Z,11.00
2017-07-10T05:31:48.859Z,10.00
2017-07-10T05:32:48.953Z,10.00
2017-07-10T05:33:48.871Z,9.00
2017-07-10T05:34:48.950Z,9.00
2017-07-10T05:35:48.957Z,8.00
2017-07-10T05:36:48.948Z,8.00
2017-07-10T05:37:48.931Z,7.00
2017-07-10T05:38:48.935Z,7.00
2017-07-10T05:39:48.958Z,7.00
2017-07-10T05:40:48.933Z,7.00
2017-07-10T05:41:48.949Z,6.00
2017-07-10T05:42:48.877Z,6.00
2017-07-10T05:43:48.871Z,6.00
2017-07-10T05:44:48.940Z,6.00
2017-07-10T05:45:48.958Z,6.00
2017-07-10T05:46:48.913Z,5.00
2017-07-10T05:47:48.942Z,5.00
2017-07-10T05:48:48.964Z,5.00
2017-07-10T05:49:48.928Z,5.00
2017-07-10T05:50:48.928Z,5.00
2017-07-10T05:51:48.930Z,5.00
2017-07-10T05:52:48.930Z,5.00
2017-07-10T05:53:48.933Z,5.00
2017-07-10T05:54:48.931Z,5.00
2017-07-10T05:55:48.932Z,5.00
2017-07-10T05:56:48.930Z,5.00
2017-07-10T05:57:48.930Z,6.00
2017-07-10T05:58:48.935Z,6.00
2017-07-10T05:59:48.948Z,7.00
2017-07-10T06:00:48.946Z,7.00
2017-07-10T06:01:48.865Z,7.00
2017-07-10T06:02:48.861Z,8.00
2017-07-10T06:03:48.953Z,8.00
2017-07-10T06:04:48.948Z,9.00
2017-07-10T06:05:48.948Z,9.00
2017-07-10T06:06:48.951Z,9.00
2017-07-10T06:07:48.865Z,9.00
2017-07-10T06:08:48.949Z,10.00
2017-07-10T06:09:48.885Z,10.00
2017-07-10T06:10:48.965Z,10.00
2017-07-10T06:11:48.977Z,10.00
2017-07-10T06:12:48.878Z,10.00
2017-07-10T06:13:48.885Z,10.00
2017-07-10T06:14:48.987Z,11.00
2017-07-10T06:15:48.955Z,11.00
2017-07-10T06:16:48.895Z,11.00
2017-07-10T06:17:48.981Z,12.00
2017-07-10T06:18:48.884Z,12.00
2017-07-10T06:19:48.940Z,13.00
2017-07-10T06:20:48.943Z,13.00
2017-07-10T06:21:48.945Z,13.00
2017-07-10T06:22:48.943Z,13.00
2017-07-10T06:23:48.945Z,13.00
2017-07-10T06:24:48.945Z,13.00
2017-07-10T06:25:48.946Z,13.00
2017-07-10T06:26:48.950Z,13.00
2017-07-10T06:27:48.955Z,12.00
2017-07-10T06:28:48.953Z,12.00
2017-07-10T06:29:48.950Z,12.00
2017-07-10T06:30:48.950Z,12.00
2017-07-10T06:31:48.955Z,12.00
2017-07-10T06:32:48.949Z,12.00
2017-07-10T06:33:48.949Z,12.00
2017-07-10T06:34:48.951Z,11.00
2017-07-10T06:35:48.951Z,11.00
2017-07-10T06:36:48.952Z,10.00
2017-07-10T06:37:48.953Z,10.00
2017-07-10T06:38:48.951Z,9.00
2017-07-10T06:39:48.907Z,9.00
2017-07-10T06:40:48.962Z,8.00
2017-07-10T06:41:48.950Z,8.00
2017-07-10T06:42:48.996Z,8.00
2017-07-10T06:43:48.948Z,7.00
2017-07-10T06:44:48.906Z,7.00
2017-07-10T06:45:48.905Z,7.00
2017-07-10T06:46:48.912Z,7.00
2017-07-10T06:47:48.954Z,7.00
2017-07-10T06:48:48.986Z,7.00
2017-07-10T06:49:49.001Z,7.00
2017-07-10T06:50:48.957Z,7.00
2017-07-10T06:51:48.994Z,7.00
2017-07-10T06:52:48.912Z,8.00
2017-07-10T06:53:49.003Z,8.00
2017-07-10T06:54:48.909Z,8.00
2017-07-10T06:55:49.004Z,8.00
2017-07-10T06:56:48.930Z,8.00
2017-07-10T06:57:49.001Z,8.00
2017-07-10T06:58:48.959Z,8.00
2017-07-10T06:59:49.003Z,7.00
2017-07-10T07:00:49.007Z,7.00
2017-07-10T07:01:49.003Z,6.00
2017-07-10T07:02:48.977Z,6.00
2017-07-10T07:03:48.999Z,6.00
2017-07-10T07:04:48.994Z,6.00
2017-07-10T07:05:49.036Z,7.00
2017-07-10T07:06:49.010Z,7.00
2017-07-10T07:07:49.001Z,8.00
2017-07-10T07:08:48.983Z,8.00
2017-07-10T07:09:48.985Z,8.00
2017-07-10T07:10:48.991Z,9.00
2017-07-10T07:11:48.972Z,9.00
2017-07-10T07:12:48.992Z,10.00
2017-07-10T07:13:48.984Z,10.00
2017-07-10T07:14:48.987Z,10.00
2017-07-10T07:15:48.985Z,10.00
2017-07-10T07:16:48.987Z,10.00
2017-07-10T07:17:48.985Z,10.00
2017-07-10T07:18:49.050Z,10.00
2017-07-10T07:19:48.990Z,10.00
2017-07-10T07:20:48.994Z,10.00
2017-07-10T07:21:48.990Z,11.00
2017-07-10T07:22:49.017Z,11.00
2017-07-10T07:23:48.993Z,12.00
2017-07-10T07:24:49.070Z,12.00
2017-07-10T07:25:48.993Z,12.00
2017-07-10T07:26:48.998Z,12.00
2017-07-10T07:27:48.995Z,12.00
2017-07-10T07:28:48.993Z,11.00
2017-07-10T07:29:48.935Z,10.00
2017-07-10T07:30:49.007Z,10.00
2017-07-10T07:31:49.017Z,9.00
2017-07-10T07:32:48.940Z,9.00
2017-07-10T07:33:48.926Z,9.00
2017-07-10T07:34:49.016Z,9.00
2017-07-10T07:35:48.934Z,9.00
2017-07-10T07:36:48.936Z,8.00
2017-07-10T07:37:49.021Z,8.00
2017-07-10T07:38:49.020Z,8.00
2017-07-10T07:39:48.934Z,9.00
2017-07-10T07:40:49.025Z,9.00
2017-07-10T07:41:48.934Z,9.00
2017-07-10T07:42:49.023Z,10.00
2017-07-10T07:43:48.934Z,11.00
2017-07-10T07:44:48.943Z,11.00
2017-07-10T07:45:49.025Z,11.00
2017-07-10T07:46:49.012Z,11.00
2017-07-10T07:47:49.009Z,11.00
2017-07-10T07:48:49.027Z,12.00
2017-07-10T07:49:48.990Z,12.00
2017-07-10T07:50:49.014Z,13.00
2017-07-10T07:51:49.025Z,13.00
2017-07-10T07:52:48.940Z,13.00
2017-07-10T07:53:49.026Z,13.00
2017-07-10T07:54:49.025Z,13.00
2017-07-10T07:55:49.027Z,13.00
2017-07-10T07:56:48.995Z,13.00
2017-07-10T07:57:48.993Z,13.00
2017-07-10T07:58:49.038Z,13.00
2017-07-10T07:59:49.035Z,13.00
2017-07-10T08:00:49.014Z,13.00
2017-07-10T08:01:49.010Z,12.00
2017-07-10T08:02:49.014Z,12.00
2017-07-10T08:03:49.018Z,11.00
2017-07-10T08:04:49.013Z,10.00
2017-07-10T08:05:49.017Z,10.00
2017-07-10T08:06:49.018Z,9.00
2017-07-10T08:07:49.022Z,9.00
2017-07-10T08:08:48.940Z,10.00
2017-07-10T08:09:48.960Z,10.00
2017-07-10T08:10:48.999Z,10.00
2017-07-10T08:11:48.999Z,10.00
2017-07-10T08:12:49.038Z,11.00
2017-07-10T08:13:48.948Z,11.00
2017-07-10T08:14:48.956Z,12.00
2017-07-10T08:15:49.049Z,12.00
2017-07-10T08:16:49.016Z,13.00
2017-07-10T08:17:49.037Z,14.00
2017-07-10T08:18:49.053Z,14.00
2017-07-10T08:19:49.042Z,15.00
2017-07-10T08:20:49.018Z,15.00
2017-07-10T08:21:49.038Z,15.00
2017-07-10T08:22:48.981Z,14.00
2017-07-10T08:23:49.046Z,14.00
2017-07-10T08:24:49.065Z,13.00
2017-07-10T08:25:49.029Z,13.00
2017-07-10T08:26:49.032Z,12.00
2017-07-10T08:27:49.031Z,12.00
2017-07-10T08:28:49.031Z,12.00
2017-07-10T08:29:49.020Z,12.00
2017-07-10T08:30:49.018Z,12.00
2017-07-10T08:31:49.018Z,12.00
2017-07-10T08:32:49.019Z,12.00
2017-07-10T08:33:49.024Z,12.00
2017-07-10T08:34:49.020Z,13.00
2017-07-10T08:35:49.018Z,12.00
2017-07-10T08:36:49.023Z,12.00
2017-07-10T08:37:49.019Z,11.00
2017-07-10T08:38:49.024Z,10.00
2017-07-10T08:39:49.037Z,9.00
2017-07-10T08:40:49.046Z,8.00
2017-07-10T08:41:49.038Z,7.00
2017-07-10T08:42:49.039Z,7.00
2017-07-10T08:43:49.053Z,7.00
2017-07-10T08:44:49.039Z,6.00
2017-07-10T08:45:49.041Z,6.00
2017-07-10T08:46:49.041Z,6.00
2017-07-10T08:47:49.045Z,5.00
2017-07-10T08:48:49.048Z,5.00
2017-07-10T08:49:49.044Z,5.00
2017-07-10T08:50:49.043Z,5.00
2017-07-10T08:51:49.049Z,5.00
2017-07-10T08:52:49.047Z,5.00
2017-07-10T08:53:48.965Z,5.00
2017-07-10T08:54:49.060Z,5.00
2017-07-10T08:55:49.048Z,5.00
2017-07-10T08:56:49.133Z,5.00
2017-07-10T08:57:49.051Z,5.00
2017-07-10T08:58:49.051Z,6.00
2017-07-10T08:59:49.040Z,6.00
2017-07-10T09:00:49.033Z,6.00
2017-07-10T09:01:49.035Z,6.00
2017-07-10T09:02:49.036Z,6.00
2017-07-10T09:03:49.040Z,6.00
2017-07-10T09:04:49.036Z,6.00
2017-07-10T09:05:49.041Z,6.00
2017-07-10T09:06:49.037Z,6.00
2017-07-10T09:07:49.041Z,6.00
2017-07-10T09:08:49.041Z,6.00
2017-07-10T09:09:49.039Z,6.00
2017-07-10T09:10:49.091Z,6.00
2017-07-10T09:11:49.053Z,5.00
2017-07-10T09:12:49.070Z,5.00
2017-07-10T09:13:49.089Z,5.00
2017-07-10T09:14:49.057Z,4.00
2017-07-10T09:15:49.057Z,4.00
2017-07-10T09:16:49.072Z,4.00
2017-07-10T09:17:49.071Z,4.00
2017-07-10T09:18:49.108Z,4.00
2017-07-10T09:19:49.060Z,4.00
2017-07-10T09:20:49.084Z,5.00
2017-07-10T09:21:49.074Z,5.00
2017-07-10T09:22:48.999Z,5.00
2017-07-10T09:23:49.086Z,6.00
2017-07-10T09:24:48.992Z,5.00
2017-07-10T09:25:49.065Z,5.00
2017-07-10T09:26:49.083Z,5.00
2017-07-10T09:27:49.078Z,5.00
2017-07-10T09:28:49.044Z,5.00
2017-07-10T09:29:49.087Z,5.00
2017-07-10T09:30:49.071Z,5.00
2017-07-10T09:31:49.068Z,5.00
2017-07-10T09:32:49.065Z,5.00
2017-07-10T09:33:49.064Z,5.00
2017-07-10T09:34:49.068Z,5.00
2017-07-10T09:35:49.067Z,4.00
2017-07-10T09:36:49.072Z,4.00
2017-07-10T09:37:49.064Z,4.00
2017-07-10T09:38:49.070Z,4.00
2017-07-10T09:39:49.070Z,5.00
2017-07-10T09:40:49.011Z,5.00
2017-07-10T09:41:49.064Z,6.00
2017-07-10T09:42:49.069Z,8.00
2017-07-10T09:43:49.070Z,9.00
2017-07-10T09:44:49.091Z,9.00
2017-07-10T09:45:49.142Z,9.00
2017-07-10T09:46:49.102Z,8.00
2017-07-10T09:47:49.090Z,7.00
2017-07-10T09:48:49.071Z,6.00
2017-07-10T09:49:49.056Z,6.00
2017-07-10T09:50:49.011Z,5.00
2017-07-10T09:51:49.091Z,4.00
2017-07-10T09:52:49.074Z,3.00
2017-07-10T09:53:49.075Z,2.00
2017-07-10T09:54:49.101Z,2.00
2017-07-10T09:55:49.092Z,2.00
2017-07-10T09:56:49.096Z,2.00
2017-07-10T09:57:49.014Z,3.00
2017-07-10T09:58:49.098Z,4.00
2017-07-10T09:59:49.004Z,4.00
2017-07-10T10:00:49.059Z,4.00
2017-07-10T10:01:49.111Z,4.00
2017-07-10T10:02:49.095Z,4.00
2017-07-10T10:03:49.018Z,3.00
2017-07-10T10:04:49.012Z,3.00
2017-07-10T10:05:49.065Z,3.00
2017-07-10T10:06:49.106Z,4.00
2017-07-10T10:07:49.100Z,5.00
2017-07-10T10:08:49.062Z,7.00
2017-07-10T10:09:49.061Z,7.00
2017-07-10T10:10:49.089Z,7.00
2017-07-10T10:11:49.008Z,6.00
2017-07-10T10:12:49.057Z,6.00
2017-07-10T10:13:49.026Z,6.00
2017-07-10T10:14:49.112Z,7.00
2017-07-10T10:15:49.057Z,8.00
2017-07-10T10:16:49.011Z,9.00
2017-07-10T10:17:49.095Z,10.00
2017-07-10T10:18:49.007Z,12.00
2017-07-10T10:19:49.058Z,14.00
2017-07-10T10:20:49.032Z,16.00
2017-07-10T10:21:49.118Z,18.00
2017-07-10T10:22:49.022Z,20.00
2017-07-10T10:23:49.116Z,20.00
2017-07-10T10:24:49.111Z,20.00
2017-07-10T10:25:49.027Z,20.00
2017-07-10T10:26:49.110Z,20.00
2017-07-10T10:27:49.106Z,22.00
2017-07-10T10:28:49.111Z,24.00
2017-07-10T10:29:49.112Z,26.00
2017-07-10T10:30:49.094Z,27.00
2017-07-10T10:31:49.093Z,28.00
2017-07-10T10:32:49.099Z,37.00
2017-07-10T10:33:49.094Z,37.00
2017-07-10T10:34:49.095Z,37.00
2017-07-10T10:35:49.108Z,33.00
2017-07-10T10:36:49.095Z,32.00
2017-07-10T10:37:49.106Z,31.00
2017-07-10T10:38:49.104Z,31.00
2017-07-10T10:39:49.102Z,31.00
2017-07-10T10:40:49.086Z,37.00
2017-07-10T10:41:49.086Z,29.00
2017-07-10T10:42:49.091Z,25.00
2017-07-10T10:43:49.092Z,23.00
2017-07-10T10:44:49.092Z,21.00
2017-07-10T10:45:49.091Z,19.00
2017-07-10T10:46:49.094Z,19.00
2017-07-10T10:47:49.091Z,18.00
2017-07-10T10:48:49.094Z,18.00
2017-07-10T10:49:49.091Z,19.00
2017-07-10T10:50:49.105Z,18.00
2017-07-10T10:51:49.189Z,17.00
2017-07-10T10:52:49.103Z,17.00
2017-07-10T10:53:49.123Z,17.00
2017-07-10T10:54:49.040Z,17.00
2017-07-10T10:55:49.149Z,17.00
2017-07-10T10:56:49.130Z,17.00
2017-07-10T10:57:49.132Z,16.00
2017-07-10T10:58:49.045Z,15.00
2017-07-10T10:59:49.130Z,15.00
2017-07-10T11:00:49.139Z,15.00
2017-07-10T11:01:49.090Z,15.00
2017-07-10T11:02:49.051Z,16.00
2017-07-10T11:03:49.135Z,17.00
2017-07-10T11:04:49.136Z,18.00
2017-07-10T11:05:49.049Z,18.00
2017-07-10T11:06:49.136Z,18.00
2017-07-10T11:07:49.110Z,18.00
2017-07-10T11:08:49.138Z,18.00
2017-07-10T11:09:49.052Z,18.00
2017-07-10T11:10:49.140Z,17.00
2017-07-10T11:11:49.081Z,16.00
2017-07-10T11:12:49.141Z,15.00
2017-07-10T11:13:49.058Z,15.00
2017-07-10T11:14:49.095Z,14.00
2017-07-10T11:15:49.098Z,14.00
2017-07-10T11:16:49.060Z,14.00
2017-07-10T11:17:49.135Z,14.00
2017-07-10T11:18:49.104Z,15.00
2017-07-10T11:19:49.113Z,15.00
2017-07-10T11:20:49.151Z,16.00
2017-07-10T11:21:49.133Z,17.00
2017-07-10T11:22:49.132Z,17.00
2017-07-10T11:23:49.119Z,17.00
2017-07-10T11:24:49.144Z,18.00
2017-07-10T11:25:49.149Z,19.00
2017-07-10T11:26:49.146Z,20.00
2017-07-10T11:27:49.148Z,20.00
2017-07-10T11:28:49.145Z,21.00
2017-07-10T11:29:49.147Z,21.00
2017-07-10T11:30:49.143Z,21.00
2017-07-10T11:31:49.127Z,21.00
2017-07-10T11:32:49.133Z,21.00
2017-07-10T11:33:49.131Z,21.00
2017-07-10T11:34:49.132Z,22.00
2017-07-10T11:35:49.136Z,23.00
2017-07-10T11:36:49.138Z,24.00
2017-07-10T11:37:49.051Z,25.00
2017-07-10T11:38:49.158Z,25.00
2017-07-10T11:39:49.133Z,25.00
2017-07-10T11:40:49.139Z,25.00
2017-07-10T11:41:49.139Z,25.00
2017-07-10T11:42:49.137Z,25.00
2017-07-10T11:43:49.138Z,26.00
2017-07-10T11:44:49.141Z,27.00
2017-07-10T11:45:49.141Z,28.00
2017-07-10T11:46:49.140Z,27.00
2017-07-10T11:47:49.143Z,26.00
2017-07-10T11:48:49.142Z,24.00
2017-07-10T11:49:49.144Z,25.00
2017-07-10T11:50:49.148Z,26.00
2017-07-10T11:51:49.143Z,27.00
2017-07-10T11:52:49.145Z,28.00
2017-07-10T11:53:49.143Z,28.00
2017-07-10T11:54:49.247Z,28.00
2017-07-10T11:55:49.152Z,27.00
2017-07-10T11:56:49.160Z,28.00
2017-07-10T11:57:49.148Z,28.00
2017-07-10T11:58:49.147Z,26.00
2017-07-10T11:59:49.149Z,24.00
2017-07-10T12:00:49.147Z,25.00
2017-07-10T12:01:49.148Z,26.00
2017-07-10T12:02:49.146Z,27.00
2017-07-10T12:03:49.160Z,27.00
2017-07-10T12:04:49.151Z,28.00
2017-07-10T12:05:49.150Z,27.00
2017-07-10T12:06:49.151Z,26.00
2017-07-10T12:07:49.154Z,26.00
2017-07-10T12:08:49.152Z,24.00
2017-07-10T12:09:49.153Z,21.00
2017-07-10T12:10:49.145Z,20.00
2017-07-10T12:11:49.142Z,20.00
2017-07-10T12:12:49.137Z,20.00
2017-07-10T12:13:49.140Z,19.00
2017-07-10T12:14:49.137Z,16.00
2017-07-10T12:15:49.141Z,15.00
2017-07-10T12:16:49.143Z,16.00
2017-07-10T12:17:49.144Z,17.00
2017-07-10T12:18:49.142Z,19.00
2017-07-10T12:19:49.148Z,20.00
2017-07-10T12:20:49.149Z,20.00
2017-07-10T12:21:49.150Z,21.00
2017-07-10T12:22:49.146Z,23.00
2017-07-10T12:23:49.146Z,26.00
2017-07-10T12:24:49.136Z,29.00
2017-07-10T12:25:49.149Z,34.00
2017-07-10T12:26:49.149Z,40.00
2017-07-10T12:27:49.149Z,50.00
2017-07-10T12:28:49.148Z,52.00
2017-07-10T12:29:49.153Z,48.00
2017-07-10T12:30:49.156Z,75.00
2017-07-10T12:31:49.151Z,84.00
2017-07-10T12:32:49.155Z,72.00
2017-07-10T12:33:49.154Z,55.00
2017-07-10T12:34:49.156Z,81.00
2017-07-10T12:35:49.152Z,49.00
2017-07-10T12:36:49.154Z,60.00
2017-07-10T12:37:49.156Z,88.00
2017-07-10T12:38:49.156Z,84.00
2017-07-10T12:39:49.157Z,50.00
2017-07-10T12:40:49.080Z,51.00
2017-07-10T12:41:49.158Z,29.00
2017-07-10T12:42:49.156Z,28.00
2017-07-10T12:43:49.162Z,28.00
2017-07-10T12:44:49.157Z,30.00
2017-07-10T12:45:49.160Z,30.00
2017-07-10T12:46:49.157Z,29.00
2017-07-10T12:47:49.159Z,31.00
2017-07-10T12:48:49.159Z,37.00
2017-07-10T12:49:49.164Z,81.00
2017-07-10T12:50:49.161Z,89.00
2017-07-10T12:51:49.162Z,51.00
2017-07-10T12:52:49.161Z,41.00
2017-07-10T12:53:49.162Z,38.00
2017-07-10T12:54:49.163Z,35.00
2017-07-10T12:55:49.165Z,34.00
2017-07-10T12:56:49.167Z,36.00
2017-07-10T12:57:49.166Z,38.00
2017-07-10T12:58:49.165Z,46.00
2017-07-10T12:59:49.167Z,42.00
2017-07-10T13:00:49.168Z,41.00
2017-07-10T13:01:49.168Z,47.00
2017-07-10T13:02:49.170Z,53.00
2017-07-10T13:03:49.166Z,51.00
2017-07-10T13:04:49.172Z,55.00
2017-07-10T13:05:49.168Z,52.00
2017-07-10T13:06:49.167Z,60.00
2017-07-10T13:07:49.169Z,51.00
2017-07-10T13:08:49.169Z,52.00
2017-07-10T13:09:49.175Z,65.00